Terminal Aerodrome Forecast
Issued by NWS Spokane, WA

Home | Current Version | Previous Version | Text Only | Print | Product List | Glossary On
Versions: 1 2 3 4 5 6 7 8 9 10 11 12 13 14 15 16 17 18 19 20 21 22 23
000
FTUS46 KOTX 041120
TAFEAT
TAF
KEAT 041120Z 0412/0512 30005KT P6SM SKC
     FM041900 15005KT P6SM FEW100
     FM050000 29018G26KT P6SM FEW100
     FM050500 29015KT P6SM SKC=

USA.gov is the U.S. government's official web portal to all federal, state and local government web resources and services.